createdAt,value
2023-08-15T00:01:40.022Z,100.00
2023-08-15T00:04:09.015Z,100.00
2023-08-15T00:06:36.868Z,100.00
2023-08-15T00:09:04.760Z,100.00
2023-08-15T00:11:33.501Z,100.00
2023-08-15T00:21:29.870Z,100.00
2023-08-15T00:24:23.285Z,100.00
2023-08-15T00:26:50.944Z,100.00
2023-08-15T00:29:19.396Z,100.00
2023-08-15T00:31:47.101Z,100.00
2023-08-15T00:34:14.790Z,100.00
2023-08-15T00:36:43.808Z,100.00
2023-08-15T00:39:11.500Z,100.00
2023-08-15T00:41:39.708Z,100.00
2023-08-15T00:44:07.878Z,100.00
2023-08-15T00:46:36.681Z,100.00
2023-08-15T00:49:06.870Z,100.00
2023-08-15T00:51:40.059Z,100.00
2023-08-15T00:54:09.228Z,100.00
2023-08-15T00:56:37.359Z,100.00
2023-08-15T00:59:05.778Z,100.00
2023-08-15T01:01:37.565Z,100.00
2023-08-15T01:04:05.518Z,100.00
2023-08-15T01:06:33.172Z,100.00
2023-08-15T01:09:01.915Z,100.00
2023-08-15T01:11:37.034Z,100.00
2023-08-15T01:14:11.258Z,100.00
2023-08-15T01:16:45.017Z,100.00
2023-08-15T01:19:25.839Z,100.00
2023-08-15T01:21:57.238Z,100.00
2023-08-15T01:24:26.892Z,100.00
2023-08-15T01:26:54.556Z,100.00
2023-08-15T01:29:22.254Z,100.00
2023-08-15T01:31:59.759Z,100.00
2023-08-15T01:34:35.053Z,100.00
2023-08-15T01:37:07.600Z,100.00
2023-08-15T01:39:40.918Z,100.00
2023-08-15T01:42:10.064Z,100.00
2023-08-15T01:44:39.900Z,100.00
2023-08-15T01:47:08.680Z,100.00
2023-08-15T01:49:36.361Z,100.00
2023-08-15T01:52:04.092Z,100.00
2023-08-15T01:54:32.207Z,100.00
2023-08-15T01:57:01.229Z,100.00
2023-08-15T01:59:31.021Z,100.00
2023-08-15T02:01:59.969Z,100.00
2023-08-15T02:04:27.589Z,100.00
2023-08-15T02:06:55.482Z,100.00
2023-08-15T02:09:24.989Z,100.00
2023-08-15T02:11:53.915Z,100.00
2023-08-15T02:14:23.925Z,100.00
2023-08-15T02:16:53.060Z,100.00
2023-08-15T02:19:46.348Z,100.00
2023-08-15T02:22:14.029Z,100.00
2023-08-15T02:24:42.839Z,100.00
2023-08-15T02:27:10.911Z,100.00
2023-08-15T02:29:39.938Z,100.00
2023-08-15T02:32:07.776Z,100.00
2023-08-15T02:34:36.919Z,100.00
2023-08-15T02:37:05.914Z,100.00
2023-08-15T02:39:34.844Z,100.00
2023-08-15T02:42:29.938Z,100.00
2023-08-15T02:44:59.823Z,100.00
2023-08-15T02:47:27.689Z,100.00
2023-08-15T02:49:55.496Z,100.00
2023-08-15T02:52:25.315Z,100.00
2023-08-15T02:54:53.084Z,100.00
2023-08-15T02:57:22.213Z,100.00
2023-08-15T02:59:50.278Z,100.00
2023-08-15T03:02:19.303Z,100.00
2023-08-15T03:04:52.914Z,100.00
2023-08-15T03:07:22.274Z,100.00
2023-08-15T03:09:50.573Z,100.00
2023-08-15T03:12:18.391Z,100.00
2023-08-15T03:14:48.376Z,100.00
2023-08-15T03:17:17.961Z,100.00
2023-08-15T03:19:47.124Z,100.00
2023-08-15T03:22:15.039Z,100.00
2023-08-15T03:24:42.918Z,100.00
2023-08-15T03:27:12.100Z,100.00
2023-08-15T03:29:40.067Z,100.00
2023-08-15T03:32:08.058Z,100.00
2023-08-15T03:34:39.947Z,100.00
2023-08-15T03:37:09.082Z,100.00
2023-08-15T03:39:36.808Z,100.00
2023-08-15T03:42:04.729Z,100.00
2023-08-15T03:44:32.518Z,100.00
2023-08-15T03:47:00.214Z,100.00
2023-08-15T03:49:28.000Z,100.00
2023-08-15T03:51:57.515Z,100.00
2023-08-15T03:54:27.107Z,100.00
2023-08-15T03:56:54.778Z,100.00
2023-08-15T03:59:22.500Z,100.00
2023-08-15T04:01:50.645Z,100.00
2023-08-15T04:04:19.954Z,100.00
2023-08-15T04:06:49.962Z,100.00
2023-08-15T04:09:17.778Z,100.00
2023-08-15T04:11:47.928Z,100.00
2023-08-15T04:14:18.040Z,100.00
2023-08-15T04:16:49.023Z,100.00
2023-08-15T04:19:19.008Z,100.00
2023-08-15T04:21:48.369Z,100.00
2023-08-15T04:24:17.022Z,100.00
2023-08-15T04:26:45.956Z,100.00
2023-08-15T04:29:15.054Z,100.00
2023-08-15T04:31:46.007Z,100.00
2023-08-15T04:34:13.813Z,100.00
2023-08-15T04:36:45.670Z,100.00
2023-08-15T04:39:13.490Z,100.00
2023-08-15T04:41:43.010Z,100.00
2023-08-15T04:44:12.394Z,100.00
2023-08-15T04:46:41.425Z,100.00
2023-08-15T04:49:09.255Z,100.00
2023-08-15T04:51:37.976Z,100.00
2023-08-15T04:54:13.933Z,100.00
2023-08-15T04:56:42.385Z,100.00
2023-08-15T04:59:09.999Z,100.00
2023-08-15T05:01:37.761Z,100.00
2023-08-15T05:04:07.316Z,100.00
2023-08-15T05:06:35.029Z,100.00
2023-08-15T05:09:02.955Z,100.00
2023-08-15T05:11:31.512Z,100.00
2023-08-15T05:14:02.950Z,100.00
2023-08-15T05:16:31.425Z,100.00
2023-08-15T05:18:59.232Z,100.00
2023-08-15T05:21:29.269Z,100.00
2023-08-15T05:23:57.412Z,100.00
2023-08-15T05:26:25.416Z,100.00
2023-08-15T05:28:54.025Z,100.00
2023-08-15T05:31:25.005Z,100.00
2023-08-15T05:34:18.159Z,100.00
2023-08-15T05:36:48.246Z,100.00
2023-08-15T05:39:16.122Z,100.00
2023-08-15T05:41:44.046Z,100.00
2023-08-15T05:44:13.018Z,100.00
2023-08-15T05:46:40.702Z,100.00
2023-08-15T05:49:08.334Z,100.00
2023-08-15T05:51:35.969Z,100.00
2023-08-15T05:54:07.946Z,100.00
2023-08-15T05:56:38.380Z,100.00
2023-08-15T05:59:07.053Z,100.00
2023-08-15T06:01:35.981Z,100.00
2023-08-15T06:04:04.839Z,100.00
2023-08-15T06:06:32.576Z,100.00
2023-08-15T06:09:00.265Z,100.00
2023-08-15T06:14:21.950Z,100.00
2023-08-15T06:16:50.229Z,100.00
2023-08-15T06:19:24.206Z,100.00
2023-08-15T06:22:17.225Z,100.00
2023-08-15T06:24:46.415Z,100.00
2023-08-15T06:27:16.024Z,100.00
2023-08-15T06:29:45.138Z,100.00
2023-08-15T06:32:26.376Z,100.00
2023-08-15T06:37:47.963Z,100.00
2023-08-15T06:40:17.072Z,100.00
2023-08-15T06:42:46.052Z,100.00
2023-08-15T06:45:17.411Z,100.00
2023-08-15T06:47:48.104Z,100.00
2023-08-15T06:50:15.810Z,100.00
2023-08-15T06:52:45.065Z,100.00
2023-08-15T06:55:12.747Z,100.00
2023-08-15T06:57:40.668Z,100.00
2023-08-15T07:00:13.461Z,100.00
2023-08-15T07:02:42.469Z,100.00
2023-08-15T07:05:11.705Z,100.00
2023-08-15T07:07:39.764Z,100.00
2023-08-15T07:10:08.253Z,100.00
2023-08-15T07:12:37.056Z,100.00
2023-08-15T07:15:05.514Z,100.00
2023-08-15T07:17:35.990Z,100.00
2023-08-15T07:20:06.124Z,100.00
2023-08-15T07:22:39.978Z,100.00
2023-08-15T07:25:32.949Z,100.00
2023-08-15T07:28:02.485Z,100.00
2023-08-15T07:30:30.402Z,100.00
2023-08-15T07:33:00.102Z,100.00
2023-08-15T07:35:28.643Z,100.00
2023-08-15T07:37:56.348Z,100.00
2023-08-15T07:40:24.435Z,100.00
2023-08-15T07:42:56.133Z,100.00
2023-08-15T07:45:24.191Z,100.00
2023-08-15T07:47:56.006Z,100.00
2023-08-15T07:50:31.062Z,100.00
2023-08-15T07:53:00.370Z,100.00
2023-08-15T07:55:33.073Z,100.00
2023-08-15T07:58:01.977Z,100.00
2023-08-15T08:00:30.074Z,100.00
2023-08-15T08:03:00.870Z,100.00
2023-08-15T08:05:33.598Z,100.00
2023-08-15T08:08:02.002Z,100.00
2023-08-15T08:10:33.432Z,100.00
2023-08-15T08:13:01.977Z,100.00
2023-08-15T08:15:30.548Z,100.00
2023-08-15T08:17:58.300Z,100.00
2023-08-15T08:20:52.575Z,100.00
2023-08-15T08:23:20.346Z,100.00
2023-08-15T08:25:48.032Z,100.00
2023-08-15T08:28:16.984Z,100.00
2023-08-15T08:30:45.440Z,100.00
2023-08-15T08:33:14.953Z,100.00
2023-08-15T08:35:43.581Z,100.00
2023-08-15T08:38:14.101Z,100.00
2023-08-15T08:40:43.309Z,100.00
2023-08-15T08:43:14.228Z,100.00
2023-08-15T08:45:42.737Z,100.00
2023-08-15T08:48:11.299Z,100.00
2023-08-15T08:50:39.621Z,100.00
2023-08-15T08:53:07.440Z,100.00
2023-08-15T08:55:37.476Z,100.00
2023-08-15T08:58:06.051Z,100.00
2023-08-15T09:00:35.992Z,100.00
2023-08-15T09:03:06.166Z,100.00
2023-08-15T09:05:33.888Z,100.00
2023-08-15T09:08:02.590Z,100.00
2023-08-15T09:10:30.431Z,100.00
2023-08-15T09:13:04.864Z,100.00
2023-08-15T09:15:35.468Z,100.00
2023-08-15T09:18:05.736Z,100.00
2023-08-15T09:20:34.217Z,99.99
2023-08-15T09:23:02.799Z,98.64
2023-08-15T09:25:31.525Z,96.84
2023-08-15T09:28:02.983Z,95.02
2023-08-15T09:30:33.067Z,93.49
2023-08-15T09:33:02.812Z,92.10
2023-08-15T09:35:33.682Z,90.56
2023-08-15T09:38:06.968Z,89.17
2023-08-15T09:40:36.800Z,89.48
2023-08-15T09:43:07.865Z,88.54
2023-08-15T09:45:36.076Z,87.02
2023-08-15T09:48:04.311Z,87.94
2023-08-15T09:50:33.140Z,88.15
2023-08-15T09:53:02.923Z,87.98
2023-08-15T09:55:32.453Z,86.22
2023-08-15T09:58:00.337Z,85.21
2023-08-15T10:00:29.780Z,84.98
2023-08-15T10:03:02.079Z,84.73
2023-08-15T10:05:35.147Z,83.16
2023-08-15T10:08:03.821Z,83.43
2023-08-15T10:10:34.974Z,83.34
2023-08-15T10:13:03.778Z,82.94
2023-08-15T10:15:35.504Z,82.09
2023-08-15T10:18:03.742Z,82.01
2023-08-15T10:21:03.134Z,81.88
2023-08-15T10:23:31.766Z,79.44
2023-08-15T10:26:00.476Z,79.10
2023-08-15T10:28:29.635Z,79.80
2023-08-15T10:30:59.128Z,80.72
2023-08-15T10:33:30.997Z,78.19
2023-08-15T10:36:09.137Z,78.44
2023-08-15T10:38:42.088Z,78.23
2023-08-15T10:41:14.528Z,80.50
2023-08-15T10:43:49.111Z,79.86
2023-08-15T10:46:20.391Z,79.33
2023-08-15T10:49:03.069Z,77.88
2023-08-15T10:51:34.131Z,77.32
2023-08-15T10:54:03.291Z,77.50
2023-08-15T10:56:32.653Z,76.35
2023-08-15T10:59:07.253Z,76.41
2023-08-15T11:01:38.187Z,76.69
2023-08-15T11:04:10.208Z,75.56
2023-08-15T11:06:46.765Z,73.98
2023-08-15T11:09:15.213Z,75.58
2023-08-15T11:11:43.998Z,75.39
2023-08-15T11:14:18.381Z,74.82
2023-08-15T11:16:48.389Z,75.49
2023-08-15T11:19:41.359Z,76.38
2023-08-15T11:22:09.252Z,76.71
2023-08-15T11:24:38.509Z,76.17
2023-08-15T11:27:07.158Z,77.05
2023-08-15T11:29:35.015Z,77.20
2023-08-15T11:32:04.471Z,76.53
2023-08-15T11:34:32.223Z,75.59
2023-08-15T11:36:59.907Z,74.42
2023-08-15T11:39:29.185Z,76.11
2023-08-15T11:41:58.002Z,76.80
2023-08-15T11:44:26.946Z,76.79
2023-08-15T11:46:58.313Z,76.86
2023-08-15T11:49:42.389Z,77.33
2023-08-15T11:52:13.934Z,76.14
2023-08-15T11:54:47.184Z,76.54
2023-08-15T11:57:15.548Z,76.24
2023-08-15T11:59:43.302Z,75.71
2023-08-15T12:02:14.030Z,76.27
2023-08-15T12:04:43.062Z,76.94
2023-08-15T12:07:11.311Z,76.47
2023-08-15T12:09:39.135Z,74.32
2023-08-15T12:12:08.863Z,74.78
2023-08-15T12:14:49.534Z,73.75
2023-08-15T12:17:19.099Z,72.63
2023-08-15T12:19:48.119Z,74.06
2023-08-15T12:22:16.758Z,72.71
2023-08-15T12:24:44.398Z,71.09
2023-08-15T12:27:12.238Z,70.54
2023-08-15T12:30:10.808Z,69.00
2023-08-15T12:32:30.083Z,70.53
2023-08-15T12:35:05.093Z,69.93
2023-08-15T12:37:32.802Z,69.30
2023-08-15T12:40:01.057Z,70.27
2023-08-15T12:42:28.893Z,70.44
2023-08-15T12:44:57.014Z,71.38
2023-08-15T12:47:24.635Z,69.01
2023-08-15T12:49:53.128Z,70.41
2023-08-15T12:52:23.356Z,70.71
2023-08-15T12:54:51.423Z,71.65
2023-08-15T12:57:20.019Z,73.13
2023-08-15T12:59:49.751Z,73.15
2023-08-15T13:02:18.020Z,71.82
2023-08-15T13:04:45.941Z,72.40
2023-08-15T13:07:13.752Z,72.24
2023-08-15T13:09:43.017Z,70.92
2023-08-15T13:12:10.656Z,70.80
2023-08-15T13:14:38.482Z,70.91
2023-08-15T13:17:06.166Z,72.00
2023-08-15T13:20:00.146Z,71.71
2023-08-15T13:22:27.865Z,71.91
2023-08-15T13:24:59.106Z,72.04
2023-08-15T13:27:51.899Z,71.58
2023-08-15T13:30:19.668Z,69.66
2023-08-15T13:32:47.477Z,69.64
2023-08-15T13:35:16.561Z,69.68
2023-08-15T13:37:45.036Z,69.77
2023-08-15T13:40:15.993Z,69.69
2023-08-15T13:42:46.693Z,69.69
2023-08-15T13:45:15.733Z,67.95
2023-08-15T13:47:43.475Z,67.94
2023-08-15T13:50:35.930Z,67.83
2023-08-15T13:53:03.767Z,67.53
2023-08-15T13:55:35.259Z,67.13
2023-08-15T13:58:03.313Z,66.71
2023-08-15T14:00:33.528Z,68.31
2023-08-15T14:03:02.126Z,67.31
2023-08-15T14:05:30.138Z,67.32
2023-08-15T14:07:59.020Z,66.67
2023-08-15T14:10:28.177Z,67.17
2023-08-15T14:12:57.186Z,66.68
2023-08-15T14:15:26.036Z,67.38
2023-08-15T14:17:53.768Z,67.25
2023-08-15T14:20:21.762Z,67.13
2023-08-15T14:22:49.679Z,68.15
2023-08-15T14:25:19.059Z,68.35
2023-08-15T14:27:46.699Z,68.39
2023-08-15T14:30:17.098Z,68.04
2023-08-15T14:32:44.803Z,68.57
2023-08-15T14:35:12.504Z,69.21
2023-08-15T14:37:40.618Z,69.33
2023-08-15T14:40:09.700Z,69.69
2023-08-15T14:42:39.113Z,70.80
2023-08-15T14:45:10.074Z,70.90
2023-08-15T14:47:41.102Z,70.56
2023-08-15T14:50:09.478Z,70.37
2023-08-15T14:52:41.787Z,70.81
2023-08-15T14:55:11.196Z,70.79
2023-08-15T14:57:39.070Z,71.83
2023-08-15T15:00:09.866Z,71.61
2023-08-15T15:02:43.511Z,71.62
2023-08-15T15:05:12.659Z,70.75
2023-08-15T15:07:42.117Z,70.39
2023-08-15T15:10:11.042Z,69.45
2023-08-15T15:12:40.573Z,68.70
2023-08-15T15:15:11.213Z,68.78
2023-08-15T15:17:41.035Z,67.19
2023-08-15T15:20:09.569Z,66.19
2023-08-15T15:22:38.875Z,67.11
2023-08-15T15:25:08.204Z,66.45
2023-08-15T15:27:36.636Z,66.48
2023-08-15T15:30:05.208Z,67.21
2023-08-15T15:32:34.078Z,68.17
2023-08-15T15:35:04.053Z,68.63
2023-08-15T15:37:32.551Z,69.60
2023-08-15T15:40:01.910Z,70.53
2023-08-15T15:42:29.636Z,68.66
2023-08-15T15:44:57.500Z,69.11
2023-08-15T15:47:25.135Z,68.36
2023-08-15T15:49:53.085Z,69.62
2023-08-15T15:52:22.430Z,70.86
2023-08-15T15:54:50.200Z,70.77
2023-08-15T15:57:19.157Z,69.52
2023-08-15T15:59:47.508Z,68.67
2023-08-15T16:02:15.157Z,66.93
2023-08-15T16:04:47.380Z,67.01
2023-08-15T16:07:16.589Z,67.71
2023-08-15T16:09:45.811Z,68.43
2023-08-15T16:12:14.629Z,68.07
2023-08-15T16:14:42.438Z,67.81
2023-08-15T16:17:10.077Z,67.33
2023-08-15T16:19:39.049Z,67.66
2023-08-15T16:22:06.680Z,68.16
2023-08-15T16:24:35.312Z,67.83
2023-08-15T16:27:05.467Z,68.33
2023-08-15T16:29:33.162Z,68.74
2023-08-15T16:32:02.080Z,68.33
2023-08-15T16:34:29.736Z,68.78
2023-08-15T16:36:57.421Z,68.61
2023-08-15T16:39:25.460Z,69.05
2023-08-15T16:41:53.151Z,69.29
2023-08-15T16:44:22.133Z,69.63
2023-08-15T16:46:49.813Z,70.68
2023-08-15T16:49:18.068Z,71.64
2023-08-15T16:51:45.717Z,71.41
2023-08-15T16:54:13.573Z,71.55
2023-08-15T16:56:42.156Z,72.70
2023-08-15T16:59:09.864Z,73.14
2023-08-15T17:01:38.847Z,71.99
2023-08-15T17:04:06.952Z,71.06
2023-08-15T17:06:35.200Z,70.42
2023-08-15T17:09:04.675Z,69.88
2023-08-15T17:11:32.538Z,69.75
2023-08-15T17:14:01.601Z,69.32
2023-08-15T17:16:29.635Z,69.38
2023-08-15T17:18:58.884Z,69.38
2023-08-15T17:21:27.045Z,70.29
2023-08-15T17:23:54.900Z,70.19
2023-08-15T17:26:27.191Z,69.75
2023-08-15T17:28:54.937Z,69.45
2023-08-15T17:31:22.752Z,70.06
2023-08-15T17:33:50.455Z,70.25
2023-08-15T17:36:20.288Z,70.46
2023-08-15T17:38:48.170Z,70.21
2023-08-15T17:41:15.806Z,70.74
2023-08-15T17:43:43.618Z,70.04
2023-08-15T17:46:13.233Z,70.65
2023-08-15T17:48:42.061Z,71.55
2023-08-15T17:51:09.700Z,72.62
2023-08-15T17:53:38.857Z,73.62
2023-08-15T17:56:07.173Z,75.28
2023-08-15T17:58:48.686Z,77.57
2023-08-15T18:01:16.793Z,78.37
2023-08-15T18:03:44.779Z,78.69
2023-08-15T18:06:12.564Z,79.42
2023-08-15T18:08:42.497Z,79.88
2023-08-15T18:11:10.268Z,80.55
2023-08-15T18:13:38.250Z,81.51
2023-08-15T18:16:06.313Z,82.35
2023-08-15T18:18:34.609Z,82.44
2023-08-15T18:21:02.708Z,83.64
2023-08-15T18:23:31.069Z,83.87
2023-08-15T18:26:00.572Z,84.61
2023-08-15T18:28:29.191Z,84.94
2023-08-15T18:30:58.491Z,85.34
2023-08-15T18:33:26.134Z,86.04
2023-08-15T18:35:54.140Z,87.10
2023-08-15T18:38:22.269Z,87.07
2023-08-15T18:40:49.923Z,87.97
2023-08-15T18:43:19.120Z,88.16
2023-08-15T18:45:48.214Z,88.40
2023-08-15T18:48:18.888Z,88.66
2023-08-15T18:50:46.932Z,89.48
2023-08-15T18:53:15.543Z,89.81
2023-08-15T18:55:43.637Z,90.29
2023-08-15T18:58:11.553Z,90.65
2023-08-15T19:00:40.775Z,91.03
2023-08-15T19:03:10.426Z,91.58
2023-08-15T19:05:38.205Z,91.77
2023-08-15T19:08:07.091Z,92.49
2023-08-15T19:10:34.986Z,92.84
2023-08-15T19:13:02.647Z,93.60
2023-08-15T19:15:31.191Z,93.91
2023-08-15T19:18:02.117Z,94.53
2023-08-15T19:20:30.312Z,95.14
2023-08-15T19:22:58.005Z,95.68
2023-08-15T19:25:26.222Z,95.80
2023-08-15T19:27:53.971Z,95.55
2023-08-15T19:30:23.656Z,95.84
2023-08-15T19:32:51.481Z,95.59
2023-08-15T19:35:20.571Z,96.09
2023-08-15T19:37:48.755Z,95.88
2023-08-15T19:40:17.194Z,96.60
2023-08-15T19:42:48.051Z,97.27
2023-08-15T19:45:15.961Z,97.90
2023-08-15T19:47:43.894Z,97.95
2023-08-15T19:50:11.926Z,98.45
2023-08-15T19:52:41.206Z,98.95
2023-08-15T19:55:10.068Z,99.02
2023-08-15T19:57:38.850Z,98.85
2023-08-15T20:00:08.241Z,98.85
2023-08-15T20:02:37.167Z,99.01
2023-08-15T20:05:06.178Z,99.06
2023-08-15T20:07:35.090Z,98.64
2023-08-15T20:10:11.666Z,98.16
2023-08-15T20:12:40.396Z,97.13
2023-08-15T20:15:09.335Z,96.68
2023-08-15T20:17:38.279Z,96.22
2023-08-15T20:20:08.836Z,95.25
2023-08-15T20:22:37.060Z,95.00
2023-08-15T20:25:07.307Z,94.87
2023-08-15T20:27:35.940Z,94.45
2023-08-15T20:30:05.272Z,94.85
2023-08-15T20:32:33.113Z,94.46
2023-08-15T20:35:02.746Z,94.57
2023-08-15T20:37:31.198Z,94.66
2023-08-15T20:39:58.929Z,94.54
2023-08-15T20:42:28.044Z,94.76
2023-08-15T20:44:58.193Z,94.56
2023-08-15T20:47:25.983Z,94.97
2023-08-15T20:49:53.684Z,94.77
2023-08-15T20:52:23.870Z,94.79
2023-08-15T20:54:51.672Z,95.25
2023-08-15T20:57:19.372Z,95.59
2023-08-15T20:59:48.573Z,95.51
2023-08-15T21:02:16.393Z,95.79
2023-08-15T21:04:45.663Z,96.04
2023-08-15T21:07:13.780Z,95.86
2023-08-15T21:09:41.476Z,96.45
2023-08-15T21:12:10.228Z,96.50
2023-08-15T21:14:42.359Z,96.23
2023-08-15T21:17:11.409Z,96.37
2023-08-15T21:19:39.242Z,96.66
2023-08-15T21:22:07.323Z,96.34
2023-08-15T21:24:35.320Z,96.66
2023-08-15T21:27:02.967Z,96.75
2023-08-15T21:29:31.106Z,96.94
2023-08-15T21:31:59.558Z,96.80
2023-08-15T21:34:29.802Z,96.70
2023-08-15T21:36:57.569Z,96.67
2023-08-15T21:39:25.201Z,97.11
2023-08-15T21:41:52.888Z,97.32
2023-08-15T21:44:20.546Z,97.12
2023-08-15T21:46:48.217Z,97.16
2023-08-15T21:49:16.612Z,97.23
2023-08-15T21:51:45.614Z,97.33
2023-08-15T21:54:13.764Z,97.44
2023-08-15T21:56:41.672Z,97.48
2023-08-15T21:59:09.337Z,97.69
2023-08-15T22:01:37.042Z,98.08
2023-08-15T22:04:05.085Z,97.74
2023-08-15T22:10:42.132Z,97.79
2023-08-15T22:13:12.262Z,97.95
2023-08-15T22:15:40.104Z,98.21
2023-08-15T22:18:19.334Z,98.36
2023-08-15T22:20:49.423Z,98.33
2023-08-15T22:23:16.227Z,98.18
2023-08-15T22:25:47.491Z,98.59
2023-08-15T22:28:15.422Z,98.50
2023-08-15T22:30:43.900Z,98.75
2023-08-15T22:33:11.734Z,98.71
2023-08-15T22:35:40.629Z,98.97
2023-08-15T22:38:09.112Z,99.04
2023-08-15T22:40:37.044Z,99.33
2023-08-15T22:43:07.886Z,99.29
2023-08-15T22:45:35.849Z,99.46
2023-08-15T22:48:03.691Z,99.37
2023-08-15T22:50:31.564Z,99.59
2023-08-15T22:53:00.208Z,99.86
2023-08-15T22:55:29.927Z,100.00
2023-08-15T22:57:57.576Z,100.00
2023-08-15T23:00:26.839Z,100.00
2023-08-15T23:02:54.491Z,100.00
2023-08-15T23:05:22.179Z,100.00
2023-08-15T23:07:50.118Z,100.00
2023-08-15T23:10:19.742Z,100.00
2023-08-15T23:12:47.723Z,100.00
2023-08-15T23:15:15.433Z,100.00
2023-08-15T23:17:46.019Z,100.00
2023-08-15T23:20:13.998Z,100.00
2023-08-15T23:22:42.261Z,100.00
2023-08-15T23:25:11.311Z,100.00
2023-08-15T23:27:40.607Z,100.00
2023-08-15T23:30:10.166Z,100.00
2023-08-15T23:32:37.964Z,100.00
2023-08-15T23:35:07.976Z,100.00
2023-08-15T23:37:36.694Z,100.00
2023-08-15T23:40:07.552Z,100.00
2023-08-15T23:42:36.098Z,100.00
2023-08-15T23:45:05.009Z,100.00
2023-08-15T23:47:33.930Z,100.00
2023-08-15T23:50:03.930Z,100.00
2023-08-15T23:52:33.136Z,100.00
2023-08-15T23:55:01.705Z,100.00
2023-08-15T23:57:29.455Z,100.00
2023-08-15T23:59:57.143Z,100.00
